sensor_id;sensor_type;location;lat;lon;timestamp;P1;durP1;ratioP1;P2;durP2;ratioP2
3875;SDS011;1953;51.222;6.624;2023-06-26T00:02:44;11.30;;;10.30;;
3875;SDS011;1953;51.222;6.624;2023-06-26T00:07:27;11.23;;;9.97;;
3875;SDS011;1953;51.222;6.624;2023-06-26T00:13:59;12.10;;;10.87;;
3875;SDS011;1953;51.222;6.624;2023-06-26T00:18:42;11.50;;;9.50;;
3875;SDS011;1953;51.222;6.624;2023-06-26T00:23:24;11.47;;;10.27;;
3875;SDS011;1953;51.222;6.624;2023-06-26T00:28:08;12.60;;;10.30;;
3875;SDS011;1953;51.222;6.624;2023-06-26T00:32:52;15.63;;;10.33;;
3875;SDS011;1953;51.222;6.624;2023-06-26T00:37:35;11.23;;;9.70;;
3875;SDS011;1953;51.222;6.624;2023-06-26T00:42:17;11.97;;;10.70;;
3875;SDS011;1953;51.222;6.624;2023-06-26T00:47:00;11.23;;;10.23;;
3875;SDS011;1953;51.222;6.624;2023-06-26T00:51:44;17.27;;;10.50;;
3875;SDS011;1953;51.222;6.624;2023-06-26T00:56:27;12.50;;;10.77;;
3875;SDS011;1953;51.222;6.624;2023-06-26T01:01:10;15.43;;;10.50;;
3875;SDS011;1953;51.222;6.624;2023-06-26T01:05:55;12.17;;;10.87;;
3875;SDS011;1953;51.222;6.624;2023-06-26T01:10:42;16.50;;;10.87;;
3875;SDS011;1953;51.222;6.624;2023-06-26T01:15:25;15.03;;;11.93;;
3875;SDS011;1953;51.222;6.624;2023-06-26T01:20:07;15.00;;;11.50;;
3875;SDS011;1953;51.222;6.624;2023-06-26T01:24:53;13.27;;;11.43;;
3875;SDS011;1953;51.222;6.624;2023-06-26T01:29:48;13.10;;;11.73;;
3875;SDS011;1953;51.222;6.624;2023-06-26T01:34:32;12.87;;;10.67;;
3875;SDS011;1953;51.222;6.624;2023-06-26T01:39:15;12.87;;;11.10;;
3875;SDS011;1953;51.222;6.624;2023-06-26T01:44:05;16.00;;;11.80;;
3875;SDS011;1953;51.222;6.624;2023-06-26T01:49:01;17.53;;;12.37;;
3875;SDS011;1953;51.222;6.624;2023-06-26T01:53:50;14.57;;;11.60;;
3875;SDS011;1953;51.222;6.624;2023-06-26T01:58:35;13.63;;;12.23;;
3875;SDS011;1953;51.222;6.624;2023-06-26T02:03:22;13.40;;;11.83;;
3875;SDS011;1953;51.222;6.624;2023-06-26T02:08:07;13.70;;;12.20;;
3875;SDS011;1953;51.222;6.624;2023-06-26T02:12:50;13.80;;;11.77;;
3875;SDS011;1953;51.222;6.624;2023-06-26T02:17:33;13.27;;;11.83;;
3875;SDS011;1953;51.222;6.624;2023-06-26T02:22:16;14.57;;;12.70;;
3875;SDS011;1953;51.222;6.624;2023-06-26T02:27:00;13.57;;;11.70;;
3875;SDS011;1953;51.222;6.624;2023-06-26T02:31:42;13.77;;;12.00;;
3875;SDS011;1953;51.222;6.624;2023-06-26T02:36:25;15.43;;;12.00;;
3875;SDS011;1953;51.222;6.624;2023-06-26T02:41:07;18.20;;;11.77;;
3875;SDS011;1953;51.222;6.624;2023-06-26T02:45:51;16.67;;;11.80;;
3875;SDS011;1953;51.222;6.624;2023-06-26T02:50:34;14.47;;;11.20;;
3875;SDS011;1953;51.222;6.624;2023-06-26T02:55:16;13.20;;;11.80;;
3875;SDS011;1953;51.222;6.624;2023-06-26T02:59:59;16.93;;;10.93;;
3875;SDS011;1953;51.222;6.624;2023-06-26T03:04:43;11.70;;;10.40;;
3875;SDS011;1953;51.222;6.624;2023-06-26T03:09:25;14.80;;;10.90;;
3875;SDS011;1953;51.222;6.624;2023-06-26T03:14:08;13.73;;;11.23;;
3875;SDS011;1953;51.222;6.624;2023-06-26T03:18:50;18.20;;;10.80;;
3875;SDS011;1953;51.222;6.624;2023-06-26T03:23:34;19.00;;;11.13;;
3875;SDS011;1953;51.222;6.624;2023-06-26T03:28:17;18.33;;;11.00;;
3875;SDS011;1953;51.222;6.624;2023-06-26T03:32:59;14.17;;;10.37;;
3875;SDS011;1953;51.222;6.624;2023-06-26T03:37:42;15.73;;;11.30;;
3875;SDS011;1953;51.222;6.624;2023-06-26T03:42:26;13.93;;;10.87;;
3875;SDS011;1953;51.222;6.624;2023-06-26T03:47:08;14.30;;;10.80;;
3875;SDS011;1953;51.222;6.624;2023-06-26T03:51:51;12.37;;;10.10;;
3875;SDS011;1953;51.222;6.624;2023-06-26T03:56:33;10.63;;;9.50;;
3875;SDS011;1953;51.222;6.624;2023-06-26T04:01:17;12.17;;;10.47;;
3875;SDS011;1953;51.222;6.624;2023-06-26T04:06:00;45.07;;;10.40;;
3875;SDS011;1953;51.222;6.624;2023-06-26T04:10:43;11.43;;;9.03;;
3875;SDS011;1953;51.222;6.624;2023-06-26T04:15:26;10.90;;;9.77;;
3875;SDS011;1953;51.222;6.624;2023-06-26T04:20:10;10.47;;;8.80;;
3875;SDS011;1953;51.222;6.624;2023-06-26T04:24:53;11.40;;;9.27;;
3875;SDS011;1953;51.222;6.624;2023-06-26T04:29:35;11.57;;;9.90;;
3875;SDS011;1953;51.222;6.624;2023-06-26T04:34:18;10.20;;;8.63;;
3875;SDS011;1953;51.222;6.624;2023-06-26T04:39:02;10.03;;;7.93;;
3875;SDS011;1953;51.222;6.624;2023-06-26T04:43:45;9.53;;;7.80;;
3875;SDS011;1953;51.222;6.624;2023-06-26T04:48:27;9.53;;;6.80;;
3875;SDS011;1953;51.222;6.624;2023-06-26T04:53:11;10.73;;;7.27;;
3875;SDS011;1953;51.222;6.624;2023-06-26T04:57:55;13.30;;;8.23;;
3875;SDS011;1953;51.222;6.624;2023-06-26T05:02:38;10.00;;;8.20;;
3875;SDS011;1953;51.222;6.624;2023-06-26T05:07:20;9.60;;;7.70;;
3875;SDS011;1953;51.222;6.624;2023-06-26T05:12:03;8.90;;;7.00;;
3875;SDS011;1953;51.222;6.624;2023-06-26T05:16:48;9.70;;;7.20;;
3875;SDS011;1953;51.222;6.624;2023-06-26T05:21:31;8.27;;;7.07;;
3875;SDS011;1953;51.222;6.624;2023-06-26T05:26:14;11.83;;;7.67;;
3875;SDS011;1953;51.222;6.624;2023-06-26T05:30:57;10.93;;;7.03;;
3875;SDS011;1953;51.222;6.624;2023-06-26T05:35:41;9.03;;;7.50;;
3875;SDS011;1953;51.222;6.624;2023-06-26T05:40:26;10.47;;;7.13;;
3875;SDS011;1953;51.222;6.624;2023-06-26T05:45:10;9.80;;;7.80;;
3875;SDS011;1953;51.222;6.624;2023-06-26T05:49:52;9.47;;;7.90;;
3875;SDS011;1953;51.222;6.624;2023-06-26T05:54:37;13.27;;;7.43;;
3875;SDS011;1953;51.222;6.624;2023-06-26T05:59:20;10.20;;;7.87;;
3875;SDS011;1953;51.222;6.624;2023-06-26T06:04:03;11.93;;;7.90;;
3875;SDS011;1953;51.222;6.624;2023-06-26T06:08:45;12.87;;;7.70;;
3875;SDS011;1953;51.222;6.624;2023-06-26T06:13:29;10.13;;;7.87;;
3875;SDS011;1953;51.222;6.624;2023-06-26T06:18:12;13.37;;;8.10;;
3875;SDS011;1953;51.222;6.624;2023-06-26T06:22:54;13.83;;;7.60;;
3875;SDS011;1953;51.222;6.624;2023-06-26T06:27:37;12.83;;;8.17;;
3875;SDS011;1953;51.222;6.624;2023-06-26T06:32:21;9.47;;;7.27;;
3875;SDS011;1953;51.222;6.624;2023-06-26T06:37:04;14.13;;;7.60;;
3875;SDS011;1953;51.222;6.624;2023-06-26T06:41:46;12.17;;;7.40;;
3875;SDS011;1953;51.222;6.624;2023-06-26T06:46:29;10.13;;;6.63;;
3875;SDS011;1953;51.222;6.624;2023-06-26T06:51:13;17.43;;;7.90;;
3875;SDS011;1953;51.222;6.624;2023-06-26T06:55:55;13.20;;;7.17;;
3875;SDS011;1953;51.222;6.624;2023-06-26T07:00:38;9.93;;;6.77;;
3875;SDS011;1953;51.222;6.624;2023-06-26T07:05:20;15.67;;;7.40;;
3875;SDS011;1953;51.222;6.624;2023-06-26T07:10:05;10.67;;;7.00;;
3875;SDS011;1953;51.222;6.624;2023-06-26T07:14:49;10.73;;;6.97;;
3875;SDS011;1953;51.222;6.624;2023-06-26T07:19:31;14.93;;;7.67;;
3875;SDS011;1953;51.222;6.624;2023-06-26T07:24:14;15.70;;;9.33;;
3875;SDS011;1953;51.222;6.624;2023-06-26T07:28:58;12.07;;;7.80;;
3875;SDS011;1953;51.222;6.624;2023-06-26T07:33:40;13.63;;;8.30;;
3875;SDS011;1953;51.222;6.624;2023-06-26T07:38:23;14.23;;;7.97;;
3875;SDS011;1953;51.222;6.624;2023-06-26T07:43:05;13.50;;;8.10;;
3875;SDS011;1953;51.222;6.624;2023-06-26T07:47:49;15.93;;;7.70;;
3875;SDS011;1953;51.222;6.624;2023-06-26T07:52:32;14.97;;;8.23;;
3875;SDS011;1953;51.222;6.624;2023-06-26T07:57:14;14.70;;;8.60;;
3875;SDS011;1953;51.222;6.624;2023-06-26T08:01:57;14.93;;;9.37;;
3875;SDS011;1953;51.222;6.624;2023-06-26T08:06:41;11.37;;;8.00;;
3875;SDS011;1953;51.222;6.624;2023-06-26T08:11:24;14.47;;;10.17;;
3875;SDS011;1953;51.222;6.624;2023-06-26T08:16:06;20.37;;;10.20;;
3875;SDS011;1953;51.222;6.624;2023-06-26T08:20:49;16.77;;;9.03;;
3875;SDS011;1953;51.222;6.624;2023-06-26T08:25:33;11.60;;;8.47;;
3875;SDS011;1953;51.222;6.624;2023-06-26T08:30:15;15.10;;;8.00;;
3875;SDS011;1953;51.222;6.624;2023-06-26T08:34:58;11.73;;;7.40;;
3875;SDS011;1953;51.222;6.624;2023-06-26T08:39:41;16.33;;;7.90;;
3875;SDS011;1953;51.222;6.624;2023-06-26T08:44:24;16.23;;;8.13;;
3875;SDS011;1953;51.222;6.624;2023-06-26T08:49:08;13.00;;;7.60;;
3875;SDS011;1953;51.222;6.624;2023-06-26T08:53:56;16.70;;;7.67;;
3875;SDS011;1953;51.222;6.624;2023-06-26T08:58:40;11.00;;;7.50;;
3875;SDS011;1953;51.222;6.624;2023-06-26T09:03:24;14.10;;;7.17;;
3875;SDS011;1953;51.222;6.624;2023-06-26T09:08:07;14.53;;;6.53;;
3875;SDS011;1953;51.222;6.624;2023-06-26T09:12:50;9.70;;;6.13;;
3875;SDS011;1953;51.222;6.624;2023-06-26T09:17:38;13.60;;;6.20;;
3875;SDS011;1953;51.222;6.624;2023-06-26T09:22:24;9.63;;;6.27;;
3875;SDS011;1953;51.222;6.624;2023-06-26T09:27:07;9.50;;;6.07;;
3875;SDS011;1953;51.222;6.624;2023-06-26T09:31:51;10.67;;;5.53;;
3875;SDS011;1953;51.222;6.624;2023-06-26T09:36:33;7.63;;;5.00;;
3875;SDS011;1953;51.222;6.624;2023-06-26T09:41:18;15.50;;;6.00;;
3875;SDS011;1953;51.222;6.624;2023-06-26T09:46:01;8.40;;;5.57;;
3875;SDS011;1953;51.222;6.624;2023-06-26T09:50:43;8.03;;;5.00;;
3875;SDS011;1953;51.222;6.624;2023-06-26T09:55:26;8.30;;;4.60;;
3875;SDS011;1953;51.222;6.624;2023-06-26T10:00:11;10.73;;;4.90;;
3875;SDS011;1953;51.222;6.624;2023-06-26T10:04:54;8.10;;;5.10;;
3875;SDS011;1953;51.222;6.624;2023-06-26T10:09:38;6.63;;;3.80;;
3875;SDS011;1953;51.222;6.624;2023-06-26T10:14:23;19.17;;;4.83;;
3875;SDS011;1953;51.222;6.624;2023-06-26T10:19:10;11.27;;;3.70;;
3875;SDS011;1953;51.222;6.624;2023-06-26T10:23:55;5.23;;;3.77;;
3875;SDS011;1953;51.222;6.624;2023-06-26T10:28:39;6.90;;;3.57;;
3875;SDS011;1953;51.222;6.624;2023-06-26T10:33:24;6.40;;;3.40;;
3875;SDS011;1953;51.222;6.624;2023-06-26T10:38:09;6.07;;;3.60;;
3875;SDS011;1953;51.222;6.624;2023-06-26T10:42:51;6.57;;;3.57;;
3875;SDS011;1953;51.222;6.624;2023-06-26T10:47:48;5.00;;;3.10;;
3875;SDS011;1953;51.222;6.624;2023-06-26T10:52:36;3.70;;;3.30;;
3875;SDS011;1953;51.222;6.624;2023-06-26T10:57:25;3.70;;;2.70;;
3875;SDS011;1953;51.222;6.624;2023-06-26T11:02:07;5.03;;;2.70;;
3875;SDS011;1953;51.222;6.624;2023-06-26T11:06:51;3.40;;;2.83;;
3875;SDS011;1953;51.222;6.624;2023-06-26T11:11:58;3.60;;;2.80;;
3875;SDS011;1953;51.222;6.624;2023-06-26T11:16:47;3.03;;;2.33;;
3875;SDS011;1953;51.222;6.624;2023-06-26T11:21:30;2.60;;;2.40;;
3875;SDS011;1953;51.222;6.624;2023-06-26T11:26:13;8.63;;;2.73;;
3875;SDS011;1953;51.222;6.624;2023-06-26T11:30:57;4.40;;;2.67;;
3875;SDS011;1953;51.222;6.624;2023-06-26T11:35:41;3.30;;;2.70;;
3875;SDS011;1953;51.222;6.624;2023-06-26T11:40:24;5.50;;;3.20;;
3875;SDS011;1953;51.222;6.624;2023-06-26T11:45:08;7.43;;;2.80;;
3875;SDS011;1953;51.222;6.624;2023-06-26T11:49:51;5.30;;;2.30;;
3875;SDS011;1953;51.222;6.624;2023-06-26T11:54:35;3.93;;;2.50;;
3875;SDS011;1953;51.222;6.624;2023-06-26T11:59:18;3.93;;;2.30;;
3875;SDS011;1953;51.222;6.624;2023-06-26T12:04:01;4.43;;;2.37;;
3875;SDS011;1953;51.222;6.624;2023-06-26T12:08:45;4.57;;;1.90;;
3875;SDS011;1953;51.222;6.624;2023-06-26T12:15:00;3.13;;;2.20;;
3875;SDS011;1953;51.222;6.624;2023-06-26T12:19:44;4.97;;;1.60;;
3875;SDS011;1953;51.222;6.624;2023-06-26T12:24:28;2.40;;;1.80;;
3875;SDS011;1953;51.222;6.624;2023-06-26T12:29:11;6.07;;;1.80;;
3875;SDS011;1953;51.222;6.624;2023-06-26T12:33:56;3.23;;;1.90;;
3875;SDS011;1953;51.222;6.624;2023-06-26T12:38:39;2.13;;;1.87;;
3875;SDS011;1953;51.222;6.624;2023-06-26T12:43:22;2.37;;;1.60;;
3875;SDS011;1953;51.222;6.624;2023-06-26T12:48:10;3.60;;;2.33;;
3875;SDS011;1953;51.222;6.624;2023-06-26T12:52:55;2.77;;;1.80;;
3875;SDS011;1953;51.222;6.624;2023-06-26T12:57:38;5.60;;;1.90;;
3875;SDS011;1953;51.222;6.624;2023-06-26T13:02:20;4.10;;;1.70;;
3875;SDS011;1953;51.222;6.624;2023-06-26T13:07:03;3.40;;;1.80;;
3875;SDS011;1953;51.222;6.624;2023-06-26T13:11:48;1.98;;;1.60;;
3875;SDS011;1953;51.222;6.624;2023-06-26T13:16:30;3.80;;;1.55;;
3875;SDS011;1953;51.222;6.624;2023-06-26T13:21:13;3.05;;;1.60;;
3875;SDS011;1953;51.222;6.624;2023-06-26T13:25:56;4.45;;;1.52;;
3875;SDS011;1953;51.222;6.624;2023-06-26T13:30:40;2.95;;;1.55;;
3875;SDS011;1953;51.222;6.624;2023-06-26T13:35:22;3.60;;;1.65;;
3875;SDS011;1953;51.222;6.624;2023-06-26T13:40:05;5.07;;;1.60;;
3875;SDS011;1953;51.222;6.624;2023-06-26T13:44:49;7.45;;;1.80;;
3875;SDS011;1953;51.222;6.624;2023-06-26T13:49:33;4.18;;;2.13;;
3875;SDS011;1953;51.222;6.624;2023-06-26T13:54:15;1.80;;;1.70;;
3875;SDS011;1953;51.222;6.624;2023-06-26T13:58:59;1.92;;;1.60;;
3875;SDS011;1953;51.222;6.624;2023-06-26T14:03:43;3.60;;;1.65;;
3875;SDS011;1953;51.222;6.624;2023-06-26T14:08:27;1.85;;;1.80;;
3875;SDS011;1953;51.222;6.624;2023-06-26T14:13:09;2.90;;;1.70;;
3875;SDS011;1953;51.222;6.624;2023-06-26T14:17:55;2.30;;;1.75;;
3875;SDS011;1953;51.222;6.624;2023-06-26T14:22:39;1.92;;;1.80;;
3875;SDS011;1953;51.222;6.624;2023-06-26T14:27:22;2.85;;;1.92;;
3875;SDS011;1953;51.222;6.624;2023-06-26T14:32:05;5.47;;;2.17;;
3875;SDS011;1953;51.222;6.624;2023-06-26T14:36:48;4.07;;;1.77;;
3875;SDS011;1953;51.222;6.624;2023-06-26T14:41:31;2.38;;;2.17;;
3875;SDS011;1953;51.222;6.624;2023-06-26T14:46:15;5.93;;;2.10;;
3875;SDS011;1953;51.222;6.624;2023-06-26T14:50:57;2.05;;;1.70;;
3875;SDS011;1953;51.222;6.624;2023-06-26T14:55:40;3.55;;;1.90;;
3875;SDS011;1953;51.222;6.624;2023-06-26T15:00:23;2.50;;;2.05;;
3875;SDS011;1953;51.222;6.624;2023-06-26T15:05:08;2.60;;;1.80;;
3875;SDS011;1953;51.222;6.624;2023-06-26T15:09:51;3.20;;;1.60;;
3875;SDS011;1953;51.222;6.624;2023-06-26T15:14:33;2.13;;;1.90;;
3875;SDS011;1953;51.222;6.624;2023-06-26T15:19:16;5.93;;;2.00;;
3875;SDS011;1953;51.222;6.624;2023-06-26T15:24:00;1.90;;;1.80;;
3875;SDS011;1953;51.222;6.624;2023-06-26T15:28:42;4.97;;;2.37;;
3875;SDS011;1953;51.222;6.624;2023-06-26T15:33:25;3.60;;;2.03;;
3875;SDS011;1953;51.222;6.624;2023-06-26T15:38:07;3.40;;;2.03;;
3875;SDS011;1953;51.222;6.624;2023-06-26T15:42:51;3.63;;;2.00;;
3875;SDS011;1953;51.222;6.624;2023-06-26T15:47:34;3.17;;;1.87;;
3875;SDS011;1953;51.222;6.624;2023-06-26T15:52:16;2.20;;;1.85;;
3875;SDS011;1953;51.222;6.624;2023-06-26T15:56:59;2.77;;;1.77;;
3875;SDS011;1953;51.222;6.624;2023-06-26T16:01:43;4.10;;;1.70;;
3875;SDS011;1953;51.222;6.624;2023-06-26T16:06:26;2.83;;;2.07;;
3875;SDS011;1953;51.222;6.624;2023-06-26T16:11:08;7.90;;;1.87;;
3875;SDS011;1953;51.222;6.624;2023-06-26T16:15:51;2.60;;;1.90;;
3875;SDS011;1953;51.222;6.624;2023-06-26T16:20:35;2.03;;;1.80;;
3875;SDS011;1953;51.222;6.624;2023-06-26T16:25:18;6.50;;;2.13;;
3875;SDS011;1953;51.222;6.624;2023-06-26T16:30:01;2.93;;;1.90;;
3875;SDS011;1953;51.222;6.624;2023-06-26T16:34:43;10.17;;;2.10;;
3875;SDS011;1953;51.222;6.624;2023-06-26T16:39:27;6.10;;;2.90;;
3875;SDS011;1953;51.222;6.624;2023-06-26T16:44:10;1.93;;;1.80;;
3875;SDS011;1953;51.222;6.624;2023-06-26T16:48:52;1.83;;;1.73;;
3875;SDS011;1953;51.222;6.624;2023-06-26T16:53:37;4.80;;;2.20;;
3875;SDS011;1953;51.222;6.624;2023-06-26T16:58:21;2.40;;;2.20;;
3875;SDS011;1953;51.222;6.624;2023-06-26T17:03:04;2.20;;;2.00;;
3875;SDS011;1953;51.222;6.624;2023-06-26T17:07:46;4.80;;;2.00;;
3875;SDS011;1953;51.222;6.624;2023-06-26T17:12:29;7.33;;;2.07;;
3875;SDS011;1953;51.222;6.624;2023-06-26T17:17:13;2.40;;;2.30;;
3875;SDS011;1953;51.222;6.624;2023-06-26T17:21:58;2.20;;;2.00;;
3875;SDS011;1953;51.222;6.624;2023-06-26T17:26:41;5.07;;;2.47;;
3875;SDS011;1953;51.222;6.624;2023-06-26T17:31:23;3.27;;;2.17;;
3875;SDS011;1953;51.222;6.624;2023-06-26T17:36:07;4.40;;;2.50;;
3875;SDS011;1953;51.222;6.624;2023-06-26T17:40:52;3.30;;;2.40;;
3875;SDS011;1953;51.222;6.624;2023-06-26T17:45:35;2.60;;;2.40;;
3875;SDS011;1953;51.222;6.624;2023-06-26T17:50:18;3.10;;;2.30;;
3875;SDS011;1953;51.222;6.624;2023-06-26T17:55:02;2.47;;;2.20;;
3875;SDS011;1953;51.222;6.624;2023-06-26T17:59:45;2.50;;;1.97;;
3875;SDS011;1953;51.222;6.624;2023-06-26T18:04:28;5.30;;;1.77;;
3875;SDS011;1953;51.222;6.624;2023-06-26T18:09:10;6.53;;;1.57;;
3875;SDS011;1953;51.222;6.624;2023-06-26T18:13:55;4.97;;;1.77;;
3875;SDS011;1953;51.222;6.624;2023-06-26T18:18:39;3.80;;;1.70;;
3875;SDS011;1953;51.222;6.624;2023-06-26T18:23:22;3.00;;;2.20;;
3875;SDS011;1953;51.222;6.624;2023-06-26T18:28:05;1.80;;;1.70;;
3875;SDS011;1953;51.222;6.624;2023-06-26T18:32:49;3.80;;;1.73;;
3875;SDS011;1953;51.222;6.624;2023-06-26T18:37:32;5.97;;;1.80;;
3875;SDS011;1953;51.222;6.624;2023-06-26T18:42:14;6.53;;;2.10;;
3875;SDS011;1953;51.222;6.624;2023-06-26T18:46:57;1.80;;;1.57;;
3875;SDS011;1953;51.222;6.624;2023-06-26T18:51:40;4.33;;;1.67;;
3875;SDS011;1953;51.222;6.624;2023-06-26T18:56:23;4.00;;;1.73;;
3875;SDS011;1953;51.222;6.624;2023-06-26T19:01:07;3.23;;;1.90;;
3875;SDS011;1953;51.222;6.624;2023-06-26T19:05:50;3.00;;;1.73;;
3875;SDS011;1953;51.222;6.624;2023-06-26T19:10:34;3.60;;;1.73;;
3875;SDS011;1953;51.222;6.624;2023-06-26T19:15:17;2.30;;;2.00;;
3875;SDS011;1953;51.222;6.624;2023-06-26T19:20:01;2.77;;;1.70;;
3875;SDS011;1953;51.222;6.624;2023-06-26T19:24:44;3.30;;;1.90;;
3875;SDS011;1953;51.222;6.624;2023-06-26T19:29:28;1.77;;;1.67;;
3875;SDS011;1953;51.222;6.624;2023-06-26T19:34:10;1.50;;;1.30;;
3875;SDS011;1953;51.222;6.624;2023-06-26T19:38:53;4.03;;;2.07;;
3875;SDS011;1953;51.222;6.624;2023-06-26T19:43:35;2.57;;;1.63;;
3875;SDS011;1953;51.222;6.624;2023-06-26T19:48:19;3.30;;;2.00;;
3875;SDS011;1953;51.222;6.624;2023-06-26T19:53:01;2.63;;;2.20;;
3875;SDS011;1953;51.222;6.624;2023-06-26T19:57:45;5.43;;;2.10;;
3875;SDS011;1953;51.222;6.624;2023-06-26T20:02:28;4.10;;;1.73;;
3875;SDS011;1953;51.222;6.624;2023-06-26T20:07:12;4.40;;;2.33;;
3875;SDS011;1953;51.222;6.624;2023-06-26T20:11:55;2.90;;;1.90;;
3875;SDS011;1953;51.222;6.624;2023-06-26T20:16:37;2.90;;;1.90;;
3875;SDS011;1953;51.222;6.624;2023-06-26T20:21:20;2.50;;;1.93;;
3875;SDS011;1953;51.222;6.624;2023-06-26T20:26:04;9.33;;;5.07;;
3875;SDS011;1953;51.222;6.624;2023-06-26T20:30:46;5.10;;;2.27;;
3875;SDS011;1953;51.222;6.624;2023-06-26T20:35:29;6.73;;;2.03;;
3875;SDS011;1953;51.222;6.624;2023-06-26T20:40:12;2.10;;;1.60;;
3875;SDS011;1953;51.222;6.624;2023-06-26T20:44:57;5.43;;;2.37;;
3875;SDS011;1953;51.222;6.624;2023-06-26T20:49:40;4.73;;;2.10;;
3875;SDS011;1953;51.222;6.624;2023-06-26T20:54:23;4.50;;;2.50;;
3875;SDS011;1953;51.222;6.624;2023-06-26T20:59:06;3.97;;;2.20;;
3875;SDS011;1953;51.222;6.624;2023-06-26T21:03:50;2.97;;;2.10;;
3875;SDS011;1953;51.222;6.624;2023-06-26T21:08:33;2.40;;;2.00;;
3875;SDS011;1953;51.222;6.624;2023-06-26T21:13:15;2.90;;;2.17;;
3875;SDS011;1953;51.222;6.624;2023-06-26T21:17:58;2.73;;;1.97;;
3875;SDS011;1953;51.222;6.624;2023-06-26T21:22:42;3.67;;;2.30;;
3875;SDS011;1953;51.222;6.624;2023-06-26T21:27:25;2.63;;;2.17;;
3875;SDS011;1953;51.222;6.624;2023-06-26T21:32:07;4.00;;;2.40;;
3875;SDS011;1953;51.222;6.624;2023-06-26T21:36:50;6.63;;;2.20;;
3875;SDS011;1953;51.222;6.624;2023-06-26T21:41:34;3.47;;;2.10;;
3875;SDS011;1953;51.222;6.624;2023-06-26T21:46:16;4.53;;;2.47;;
3875;SDS011;1953;51.222;6.624;2023-06-26T21:50:59;3.07;;;2.20;;
3875;SDS011;1953;51.222;6.624;2023-06-26T21:55:41;4.77;;;2.33;;
3875;SDS011;1953;51.222;6.624;2023-06-26T22:00:25;5.33;;;2.40;;
3875;SDS011;1953;51.222;6.624;2023-06-26T22:05:08;8.90;;;2.87;;
3875;SDS011;1953;51.222;6.624;2023-06-26T22:09:51;4.00;;;2.30;;
3875;SDS011;1953;51.222;6.624;2023-06-26T22:14:34;4.13;;;2.27;;
3875;SDS011;1953;51.222;6.624;2023-06-26T22:19:18;4.93;;;3.03;;
3875;SDS011;1953;51.222;6.624;2023-06-26T22:24:01;3.13;;;2.70;;
3875;SDS011;1953;51.222;6.624;2023-06-26T22:28:43;3.60;;;2.80;;
3875;SDS011;1953;51.222;6.624;2023-06-26T22:33:26;4.13;;;2.50;;
3875;SDS011;1953;51.222;6.624;2023-06-26T22:38:10;9.77;;;3.10;;
3875;SDS011;1953;51.222;6.624;2023-06-26T22:42:52;5.87;;;2.90;;
3875;SDS011;1953;51.222;6.624;2023-06-26T22:47:35;5.27;;;2.80;;
3875;SDS011;1953;51.222;6.624;2023-06-26T22:52:18;7.03;;;2.77;;
3875;SDS011;1953;51.222;6.624;2023-06-26T22:57:03;6.50;;;3.23;;
3875;SDS011;1953;51.222;6.624;2023-06-26T23:01:45;3.37;;;2.43;;
3875;SDS011;1953;51.222;6.624;2023-06-26T23:06:28;6.00;;;2.80;;
3875;SDS011;1953;51.222;6.624;2023-06-26T23:11:11;4.93;;;2.63;;
3875;SDS011;1953;51.222;6.624;2023-06-26T23:15:54;9.03;;;3.03;;
3875;SDS011;1953;51.222;6.624;2023-06-26T23:20:37;4.63;;;3.13;;
3875;SDS011;1953;51.222;6.624;2023-06-26T23:25:20;4.20;;;3.40;;
3875;SDS011;1953;51.222;6.624;2023-06-26T23:30:03;5.00;;;3.10;;
3875;SDS011;1953;51.222;6.624;2023-06-26T23:34:48;4.60;;;3.33;;
3875;SDS011;1953;51.222;6.624;2023-06-26T23:39:31;5.60;;;2.90;;
3875;SDS011;1953;51.222;6.624;2023-06-26T23:44:14;9.37;;;3.73;;
3875;SDS011;1953;51.222;6.624;2023-06-26T23:48:59;5.13;;;2.97;;
3875;SDS011;1953;51.222;6.624;2023-06-26T23:53:43;4.87;;;3.90;;
3875;SDS011;1953;51.222;6.624;2023-06-26T23:58:25;5.70;;;3.90;;
